Terminal Aerodrome Forecast
Issued by NWS

Home | Current Version | Previous Version | Text Only | Print | Product List | Glossary On
Versions: 1 2 3 4 5 6 7 8 9 10 11 12 13 14 15 16 17 18 19 20
000
FTUS41 KGYX 091120
TAFPSM
TAF
KPSM 091120Z 0912/1012 25012KT P6SM FEW250
     FM091400 29019G27KT P6SM BKN250
     FM100300 30011KT P6SM FEW250=

USA.gov is the U.S. government's official web portal to all federal, state and local government web resources and services.